Time;durP1;ratioP1;P1;durP2;ratioP2;P2;SDS_P1;SDS_P2;PMS_P1;PMS_P2;Temp;Humidity;BMP_temperature;BMP_pressure;BME280_temperature;BME280_humidity;BME280_pressure;Samples;Min_cycle;Max_cycle;Signal;HPM_P1;HPM_P2
2023/03/16 00:01:34;;;;;;;;;;;;;;;3.31;71.04;101700.22;4963480;28;5265;-78
2023/03/16 00:03:59;;;;;;;;;;;;;;;3.32;71.03;101696.75;4961604;28;1337;-78
2023/03/16 00:06:24;;;;;;;;;;;;;;;3.34;71.06;101697.53;4968546;28;1290;-78
2023/03/16 00:08:49;;;;;;;;;;;;;;;3.33;72.19;101691.59;4963008;28;2038;-78
2023/03/16 00:11:14;;;;;;;;;;;;;;;3.35;71.03;101694.09;4968120;28;1297;-78
2023/03/16 00:13:41;;;;;;;;;;;;;;;3.36;71.78;101700.88;4968486;28;1641;-78
2023/03/16 00:16:06;;;;;;;;;;;;;;;3.36;71.57;101700.88;4967631;28;1341;-78
2023/03/16 00:18:37;;;;;;;;;;;;;;;3.38;72.51;101699.09;4993322;28;1381;-78
2023/03/16 00:21:04;;;;;;;;;;;;;;;3.38;73.38;101701.66;4965630;28;1472;-78
2023/03/16 00:23:34;;;;;;;;;;;;;;;3.39;72.91;101690.53;4964505;28;1333;-78
2023/03/16 00:26:01;;;;;;;;;;;;;;;3.39;72.03;101685.41;4965792;28;1230;-78
2023/03/16 00:28:27;;;;;;;;;;;;;;;3.39;72.32;101682.84;4964686;28;1432;-78
2023/03/16 00:30:57;;;;;;;;;;;;;;;3.40;72.62;101679.38;4967053;28;1162;-77
2023/03/16 00:33:23;;;;;;;;;;;;;;;3.40;73.57;101679.38;4965035;28;1357;-78
2023/03/16 00:35:48;;;;;;;;;;;;;;;3.40;73.16;101676.81;4961815;28;1586;-77
2023/03/16 00:38:13;;;;;;;;;;;;;;;3.40;72.90;101671.66;4961068;28;1018;-78
2023/03/16 00:40:39;;;;;;;;;;;;;;;3.40;73.50;101671.66;4963882;28;1890;-78
2023/03/16 00:43:04;;;;;;;;;;;;;;;3.40;73.92;101666.53;4994218;28;1420;-78
2023/03/16 00:45:29;;;;;;;;;;;;;;;3.40;72.08;101661.41;4961772;28;1013;-78
2023/03/16 00:47:54;;;;;;;;;;;;;;;3.39;73.55;101654.63;4957898;28;1178;-77
2023/03/16 00:50:21;;;;;;;;;;;;;;;3.38;73.26;101664.03;4965467;28;1004;-78
2023/03/16 00:52:46;;;;;;;;;;;;;;;3.40;72.96;101651.16;4966041;28;1143;-79
2023/03/16 00:55:12;;;;;;;;;;;;;;;3.41;74.72;101652.81;4962050;28;1122;-78
2023/03/16 00:57:38;;;;;;;;;;;;;;;3.41;74.49;101647.69;4964795;28;1366;-77
2023/03/16 01:00:11;;;;;;;;;;;;;;;3.40;75.54;101640.91;4961094;28;4936;-78
2023/03/16 01:02:36;;;;;;;;;;;;;;;3.41;74.57;101647.69;4962366;28;1125;-78
2023/03/16 01:05:04;;;;;;;;;;;;;;;3.42;74.90;101636.53;4958889;28;2488;-78
2023/03/16 01:07:30;;;;;;;;;;;;;;;3.41;74.61;101628.00;4968498;28;1408;-78
2023/03/16 01:09:57;;;;;;;;;;;;;;;3.42;74.48;101633.97;4969889;28;1196;-78
2023/03/16 01:12:22;;;;;;;;;;;;;;;3.42;73.56;101633.97;4970391;28;1288;-78
2023/03/16 01:14:47;;;;;;;;;;;;;;;3.42;73.88;101619.41;4970413;28;1497;-78
2023/03/16 01:17:14;;;;;;;;;;;;;;;3.43;74.15;101615.13;4970017;28;1498;-77
2023/03/16 01:19:40;;;;;;;;;;;;;;;3.44;74.03;101609.09;4973197;28;1890;-77
2023/03/16 01:22:06;;;;;;;;;;;;;;;3.47;73.07;101604.69;4970988;28;1640;-78
2023/03/16 01:24:31;;;;;;;;;;;;;;;3.44;74.19;101599.69;4970729;28;1421;-77
2023/03/16 01:26:56;;;;;;;;;;;;;;;3.45;75.55;101603.09;4967237;28;1616;-78
2023/03/16 01:29:21;;;;;;;;;;;;;;;3.46;74.26;101604.75;4969824;28;1231;-77
2023/03/16 01:31:48;;;;;;;;;;;;;;;3.43;74.27;101599.75;4970691;28;1250;-78
2023/03/16 01:34:16;;;;;;;;;;;;;;;3.44;74.73;101596.28;4970388;28;1332;-77
2023/03/16 01:36:43;;;;;;;;;;;;;;;3.45;73.93;101608.22;4971353;28;1208;-78
2023/03/16 01:39:09;;;;;;;;;;;;;;;3.45;74.82;101597.97;4964050;28;1890;-78
2023/03/16 01:41:34;;;;;;;;;;;;;;;3.45;75.62;101603.09;4970443;28;1550;-78
2023/03/16 01:43:59;;;;;;;;;;;;;;;3.45;75.71;101592.84;4969529;28;1488;-76
2023/03/16 01:46:26;;;;;;;;;;;;;;;3.45;75.83;101590.28;4968035;28;1645;-78
2023/03/16 01:48:56;;;;;;;;;;;;;;;3.45;75.43;101587.72;4969938;28;1819;-77
2023/03/16 01:51:24;;;;;;;;;;;;;;;3.44;76.07;101586.00;4970790;28;1244;-76
2023/03/16 01:53:52;;;;;;;;;;;;;;;3.43;75.76;101579.22;4963268;28;1382;-77
2023/03/16 01:56:22;;;;;;;;;;;;;;;3.42;77.22;101575.00;4971683;28;1325;-77
2023/03/16 01:58:49;;;;;;;;;;;;;;;3.43;76.21;101584.34;4972682;28;1903;-78
2023/03/16 02:01:15;;;;;;;;;;;;;;;3.44;75.60;101576.63;4971938;28;5123;-78
2023/03/16 02:03:41;;;;;;;;;;;;;;;3.44;75.57;101570.63;4965456;28;1159;-77
2023/03/16 02:06:10;;;;;;;;;;;;;;;3.45;75.48;101562.06;4969447;28;1062;-78
2023/03/16 02:08:36;;;;;;;;;;;;;;;3.45;75.40;101562.06;4967215;28;947;-78
2023/03/16 02:11:03;;;;;;;;;;;;;;;3.45;75.26;101567.19;4963851;28;1508;-78
2023/03/16 02:13:32;;;;;;;;;;;;;;;3.45;75.45;101556.94;4961990;28;994;-78
2023/03/16 02:15:58;;;;;;;;;;;;;;;3.45;75.55;101556.94;4966870;28;1168;-78
2023/03/16 02:18:23;;;;;;;;;;;;;;;3.45;75.25;101551.81;4963753;28;1078;-78
2023/03/16 02:21:15;;;;;;;;;;;;;;;3.46;75.95;101553.47;4969331;28;1973;-78
2023/03/16 02:23:43;;;;;;;;;;;;;;;3.43;75.58;101548.44;4960783;28;1153;-79
2023/03/16 02:26:13;;;;;;;;;;;;;;;3.46;76.52;101549.19;4993158;28;1483;-78
2023/03/16 02:28:57;;;;;;;;;;;;;;;3.46;75.97;101544.03;4965671;28;1185;-77
2023/03/16 02:31:22;;;;;;;;;;;;;;;3.48;76.04;101551.66;4999155;28;1436;-78
2023/03/16 02:33:49;;;;;;;;;;;;;;;3.50;75.57;101534.50;4969842;28;1269;-78
2023/03/16 02:36:16;;;;;;;;;;;;;;;3.51;76.07;101541.31;4967442;28;1299;-78
2023/03/16 02:38:41;;;;;;;;;;;;;;;3.50;76.07;101537.06;4966817;28;1497;-77
2023/03/16 02:41:11;;;;;;;;;;;;;;;3.51;75.59;101538.75;4967275;28;1898;-78
2023/03/16 02:43:37;;;;;;;;;;;;;;;3.52;76.19;101527.56;4970553;28;1174;-78
2023/03/16 02:46:03;;;;;;;;;;;;;;;3.53;76.82;101539.50;4969284;28;1426;-79
2023/03/16 02:48:31;;;;;;;;;;;;;;;3.53;76.45;101544.63;4966655;28;1300;-78
2023/03/16 02:50:56;;;;;;;;;;;;;;;3.54;76.31;101548.84;4968602;28;1377;-77
2023/03/16 02:53:21;;;;;;;;;;;;;;;3.54;76.85;101540.31;4967437;28;1159;-77
2023/03/16 02:55:46;;;;;;;;;;;;;;;3.53;77.11;101549.75;4967046;28;1255;-77
2023/03/16 02:58:13;;;;;;;;;;;;;;;3.53;76.52;101554.06;4966339;28;2382;-78
2023/03/16 03:00:38;;;;;;;;;;;;;;;3.53;76.98;101544.63;4965613;28;5009;-78
2023/03/16 03:03:04;;;;;;;;;;;;;;;3.53;76.81;101544.63;4967477;28;1434;-77
2023/03/16 03:05:30;;;;;;;;;;;;;;;3.52;76.96;101558.34;4971076;28;1319;-77
2023/03/16 03:07:55;;;;;;;;;;;;;;;3.53;76.75;101554.88;4967483;28;1556;-77
2023/03/16 03:10:20;;;;;;;;;;;;;;;3.54;77.06;101546.28;4967325;28;1432;-77
2023/03/16 03:12:48;;;;;;;;;;;;;;;3.52;77.09;101537.84;4965344;28;1247;-77
2023/03/16 03:15:13;;;;;;;;;;;;;;;3.52;76.70;101550.66;4985495;28;1395;-78
2023/03/16 03:17:39;;;;;;;;;;;;;;;3.51;78.01;101546.44;4970324;28;1330;-77
2023/03/16 03:20:12;;;;;;;;;;;;;;;3.51;78.41;101551.56;4969021;28;1894;-77
2023/03/16 03:22:37;;;;;;;;;;;;;;;3.49;78.54;101532.81;4968487;28;1465;-77
2023/03/16 03:25:03;;;;;;;;;;;;;;;3.50;78.16;101534.50;4990530;28;1739;-77
2023/03/16 03:27:28;;;;;;;;;;;;;;;3.49;78.82;101526.84;4963250;28;1421;-77
2023/03/16 03:29:53;;;;;;;;;;;;;;;3.46;78.22;101522.69;4968692;28;1265;-77
2023/03/16 03:32:18;;;;;;;;;;;;;;;3.44;78.50;101524.47;4963643;28;1185;-77
2023/03/16 03:34:43;;;;;;;;;;;;;;;3.43;79.42;101517.69;4999836;28;1240;-77
2023/03/16 03:37:09;;;;;;;;;;;;;;;3.41;79.54;101504.09;4967172;28;1401;-77
2023/03/16 03:39:34;;;;;;;;;;;;;;;3.40;79.03;101507.56;4969386;28;1958;-77
2023/03/16 03:42:01;;;;;;;;;;;;;;;3.38;80.27;101505.06;4965268;28;1263;-77
2023/03/16 03:44:27;;;;;;;;;;;;;;;3.38;80.17;101499.09;4968097;28;1389;-77
2023/03/16 03:46:52;;;;;;;;;;;;;;;3.37;80.33;101508.50;4969014;28;1123;-77
2023/03/16 03:49:17;;;;;;;;;;;;;;;3.36;80.76;101506.00;4964437;28;1263;-77
2023/03/16 03:51:43;;;;;;;;;;;;;;;3.35;80.88;101504.34;4963475;28;1194;-77
2023/03/16 03:54:08;;;;;;;;;;;;;;;3.33;81.46;101501.84;4967680;28;1997;-77
2023/03/16 03:56:34;;;;;;;;;;;;;;;3.32;81.47;101491.63;4960488;28;1422;-77
2023/03/16 03:58:59;;;;;;;;;;;;;;;3.32;81.55;101499.34;4962332;28;1954;-77
2023/03/16 04:01:24;;;;;;;;;;;;;;;3.32;81.33;101496.78;4963141;28;5000;-78
2023/03/16 04:03:49;;;;;;;;;;;;;;;3.31;81.67;101500.22;4958148;28;1038;-77
2023/03/16 04:06:15;;;;;;;;;;;;;;;3.30;81.32;101496.00;4958628;28;1187;-77
2023/03/16 04:08:40;;;;;;;;;;;;;;;3.30;81.06;101490.88;4968791;28;1036;-77
2023/03/16 04:11:06;;;;;;;;;;;;;;;3.30;81.34;101496.00;4968853;28;1461;-78
2023/03/16 04:13:31;;;;;;;;;;;;;;;3.29;82.01;101499.47;4963985;28;1171;-77
2023/03/16 04:15:57;;;;;;;;;;;;;;;3.28;82.06;101492.69;4962903;28;1098;-77
2023/03/16 04:18:22;;;;;;;;;;;;;;;3.28;82.14;101490.13;4964873;28;1050;-78
2023/03/16 04:20:47;;;;;;;;;;;;;;;3.26;82.11;101490.16;4968805;28;1894;-77
2023/03/16 04:23:12;;;;;;;;;;;;;;;3.26;82.36;101494.47;4966104;28;1608;-77
2023/03/16 04:25:38;;;;;;;;;;;;;;;3.26;82.22;101489.31;4965947;28;1573;-77
2023/03/16 04:28:03;;;;;;;;;;;;;;;3.25;81.25;101487.66;4965287;28;1421;-78
2023/03/16 04:30:29;;;;;;;;;;;;;;;3.24;81.78;101491.13;4967324;28;1539;-78
2023/03/16 04:32:55;;;;;;;;;;;;;;;3.24;82.02;101480.88;4961374;28;1330;-78
2023/03/16 04:35:21;;;;;;;;;;;;;;;3.25;81.42;101485.09;4968598;28;1155;-77
2023/03/16 04:37:46;;;;;;;;;;;;;;;3.24;80.85;101488.56;4967345;28;1372;-78
2023/03/16 04:40:14;;;;;;;;;;;;;;;3.24;81.33;101480.88;4966471;28;2558;-78
2023/03/16 04:42:39;;;;;;;;;;;;;;;3.24;82.03;101476.59;4968745;28;1349;-77
2023/03/16 04:45:05;;;;;;;;;;;;;;;3.25;82.03;101482.53;4966330;28;1587;-77
2023/03/16 04:47:32;;;;;;;;;;;;;;;3.24;81.89;101475.75;4967698;28;1289;-78
2023/03/16 04:49:57;;;;;;;;;;;;;;;3.26;81.76;101473.94;4965759;28;2114;-77
2023/03/16 04:52:23;;;;;;;;;;;;;;;3.28;81.56;101472.19;4962787;28;1345;-78
2023/03/16 04:54:48;;;;;;;;;;;;;;;3.28;81.53;101477.31;4965684;28;1641;-77
2023/03/16 04:57:13;;;;;;;;;;;;;;;3.28;81.06;101467.06;4965081;28;1887;-78
2023/03/16 04:59:38;;;;;;;;;;;;;;;3.29;81.97;101468.72;4963406;28;1887;-78
2023/03/16 05:02:04;;;;;;;;;;;;;;;3.29;81.63;101473.84;4966320;28;5441;-77
2023/03/16 05:04:29;;;;;;;;;;;;;;;3.31;82.44;101464.34;4966563;28;1401;-78
2023/03/16 05:06:54;;;;;;;;;;;;;;;3.30;82.02;101465.25;4966931;28;2347;-78
2023/03/16 05:09:20;;;;;;;;;;;;;;;3.31;82.34;101472.03;4967220;28;1444;-77
2023/03/16 05:11:45;;;;;;;;;;;;;;;3.31;81.82;101466.91;4964141;28;1520;-77
2023/03/16 05:14:10;;;;;;;;;;;;;;;3.32;81.99;101454.00;4963906;28;1500;-77
2023/03/16 05:16:35;;;;;;;;;;;;;;;3.32;81.18;101458.31;4966203;28;1157;-77
2023/03/16 05:19:00;;;;;;;;;;;;;;;3.32;81.38;101459.16;4964001;28;1922;-77
2023/03/16 05:21:26;;;;;;;;;;;;;;;3.34;81.81;101459.09;4961343;28;1019;-78
2023/03/16 05:23:51;;;;;;;;;;;;;;;3.34;81.21;101451.41;4963006;28;1404;-78
2023/03/16 05:26:17;;;;;;;;;;;;;;;3.35;81.72;101458.19;4962492;28;1462;-78
2023/03/16 05:28:42;;;;;;;;;;;;;;;3.37;81.52;101461.53;4965164;28;1262;-77
2023/03/16 05:31:07;;;;;;;;;;;;;;;3.36;80.96;101460.69;4963862;28;1586;-78
2023/03/16 05:33:33;;;;;;;;;;;;;;;3.36;81.73;101462.44;4975384;28;1640;-77
2023/03/16 05:35:58;;;;;;;;;;;;;;;3.37;81.18;101457.22;4964233;28;1564;-78
2023/03/16 05:38:24;;;;;;;;;;;;;;;3.38;81.46;101455.50;4966927;28;1723;-78
2023/03/16 05:40:53;;;;;;;;;;;;;;;3.38;81.08;101452.94;4965511;28;1952;-78
2023/03/16 05:43:19;;;;;;;;;;;;;;;3.40;81.92;101461.41;4967684;28;1417;-77
2023/03/16 05:45:45;;;;;;;;;;;;;;;3.40;82.14;101456.28;4969527;28;2015;-77
2023/03/16 05:48:10;;;;;;;;;;;;;;;3.41;81.50;101452.81;4970481;28;1245;-77
2023/03/16 05:50:35;;;;;;;;;;;;;;;3.41;81.46;101447.69;4968115;28;1307;-77
2023/03/16 05:53:00;;;;;;;;;;;;;;;3.41;81.62;101447.69;4967515;28;1583;-77
2023/03/16 05:55:26;;;;;;;;;;;;;;;3.41;81.50;101447.69;4973470;28;1263;-76
2023/03/16 05:57:51;;;;;;;;;;;;;;;3.42;81.96;101450.19;5006534;28;2119;-76
2023/03/16 06:00:17;;;;;;;;;;;;;;;3.43;81.81;101444.16;4967328;28;4761;-78
2023/03/16 06:02:43;;;;;;;;;;;;;;;3.44;81.75;101439.84;4969922;28;1430;-77
2023/03/16 06:05:09;;;;;;;;;;;;;;;3.45;82.23;101438.97;4964868;28;1099;-77
2023/03/16 06:07:34;;;;;;;;;;;;;;;3.45;82.08;101438.97;4959782;28;1071;-77
2023/03/16 06:09:59;;;;;;;;;;;;;;;3.45;82.07;101439.81;4957154;28;1017;-77
2023/03/16 06:12:24;;;;;;;;;;;;;;;3.45;82.71;101433.84;4961432;28;1079;-77
2023/03/16 06:14:50;;;;;;;;;;;;;;;3.44;81.95;101440.72;4965698;28;1118;-78
2023/03/16 06:17:15;;;;;;;;;;;;;;;3.45;81.50;101438.97;4961672;28;1074;-77
2023/03/16 06:19:40;;;;;;;;;;;;;;;3.44;82.31;101448.41;4970614;28;1943;-78
2023/03/16 06:22:06;;;;;;;;;;;;;;;3.44;82.22;101437.28;4966106;28;1595;-78
2023/03/16 06:24:31;;;;;;;;;;;;;;;3.43;82.58;101435.63;4966011;28;1396;-78
2023/03/16 06:26:56;;;;;;;;;;;;;;;3.45;82.39;101444.09;5001551;28;1253;-78
2023/03/16 06:29:21;;;;;;;;;;;;;;;3.45;82.95;101433.84;4965380;28;1721;-78
2023/03/16 06:31:46;;;;;;;;;;;;;;;3.45;82.45;101431.28;4969083;28;1484;-78
2023/03/16 06:34:12;;;;;;;;;;;;;;;3.47;83.03;101432.03;4965362;28;1496;-78
2023/03/16 06:36:38;;;;;;;;;;;;;;;3.47;82.96;101421.78;4967505;28;1397;-78
2023/03/16 06:39:03;;;;;;;;;;;;;;;3.47;83.15;101427.75;4969465;28;1902;-78
2023/03/16 06:41:29;;;;;;;;;;;;;;;3.49;83.44;101429.41;4966410;28;2098;-77
2023/03/16 06:43:54;;;;;;;;;;;;;;;3.49;82.42;101437.94;4970183;28;1234;-78
2023/03/16 06:46:19;;;;;;;;;;;;;;;3.48;82.68;101420.88;4969621;28;1586;-78
2023/03/16 06:48:46;;;;;;;;;;;;;;;3.48;82.96;101428.56;4966951;28;1187;-77
2023/03/16 06:51:11;;;;;;;;;;;;;;;3.47;82.90;101430.31;4966477;28;1433;-78
2023/03/16 06:53:36;;;;;;;;;;;;;;;3.48;83.08;101433.69;4965267;28;1262;-78
2023/03/16 06:56:01;;;;;;;;;;;;;;;3.49;83.60;101435.38;4963293;28;1638;-78
2023/03/16 06:58:27;;;;;;;;;;;;;;;3.49;82.84;101440.50;4973535;28;1279;-78
2023/03/16 07:00:52;;;;;;;;;;;;;;;3.49;83.56;101440.50;4967493;28;4991;-77
2023/03/16 07:03:18;;;;;;;;;;;;;;;3.48;82.81;101431.13;4967236;28;1290;-77
2023/03/16 07:05:43;;;;;;;;;;;;;;;3.49;84.09;101435.38;4966204;28;1405;-77
2023/03/16 07:08:09;;;;;;;;;;;;;;;3.48;84.25;101423.44;4982187;28;1461;-77
2023/03/16 07:10:34;;;;;;;;;;;;;;;3.49;83.57;101425.09;4967059;28;1195;-78
2023/03/16 07:12:59;;;;;;;;;;;;;;;3.50;83.19;101421.66;4958068;28;1216;-77
2023/03/16 07:15:25;;;;;;;;;;;;;;;3.49;83.87;101419.97;4965419;28;1054;-77
2023/03/16 07:17:51;;;;;;;;;;;;;;;3.49;83.35;101408.88;4966002;28;1159;-78
2023/03/16 07:20:16;;;;;;;;;;;;;;;3.50;84.26;101406.28;4964219;28;1982;-77
2023/03/16 07:22:42;;;;;;;;;;;;;;;3.52;83.94;101408.78;4965853;28;1196;-77
2023/03/16 07:25:07;;;;;;;;;;;;;;;3.53;84.35;101406.13;4968155;28;1436;-78
2023/03/16 07:27:33;;;;;;;;;;;;;;;3.56;84.13;101400.88;4962107;28;1337;-78
2023/03/16 07:29:59;;;;;;;;;;;;;;;3.57;84.42;101411.97;4966455;28;1409;-77
2023/03/16 07:32:24;;;;;;;;;;;;;;;3.58;84.73;101409.34;4965241;28;1155;-77
2023/03/16 07:34:50;;;;;;;;;;;;;;;3.61;85.05;101423.75;4968572;28;1408;-78
2023/03/16 07:37:15;;;;;;;;;;;;;;;3.63;84.42;101417.69;4968878;28;1417;-77
2023/03/16 07:39:40;;;;;;;;;;;;;;;3.65;84.45;101415.88;4967285;28;2194;-78
2023/03/16 07:42:06;;;;;;;;;;;;;;;3.66;84.82;101417.53;4996546;28;1500;-78
2023/03/16 07:44:31;;;;;;;;;;;;;;;3.68;84.33;101420.88;4964675;28;1317;-78
2023/03/16 07:46:56;;;;;;;;;;;;;;;3.69;85.05;101417.41;4968084;28;1304;-78
2023/03/16 07:49:22;;;;;;;;;;;;;;;3.72;84.74;101416.44;4960021;28;1505;-78
2023/03/16 07:51:47;;;;;;;;;;;;;;;3.72;85.63;101417.25;4966261;28;1331;-78
2023/03/16 07:54:12;;;;;;;;;;;;;;;3.75;85.46;101415.47;4967042;28;1483;-77
2023/03/16 07:56:38;;;;;;;;;;;;;;;3.76;84.98;101406.88;4966654;28;1232;-77
2023/03/16 07:59:03;;;;;;;;;;;;;;;3.77;85.73;101403.41;4962834;28;1902;-77
2023/03/16 08:01:28;;;;;;;;;;;;;;;3.79;86.06;101402.47;4961902;28;5044;-77
2023/03/16 08:03:53;;;;;;;;;;;;;;;3.81;85.79;101402.38;4960511;28;1357;-71
2023/03/16 08:06:20;;;;;;;;;;;;;;;3.82;85.50;101401.47;4964012;28;1009;-77
2023/03/16 08:08:45;;;;;;;;;;;;;;;3.85;85.58;101401.34;4961068;28;1180;-78
2023/03/16 08:11:10;;;;;;;;;;;;;;;3.87;85.59;101399.53;4957863;28;1017;-77
2023/03/16 08:13:35;;;;;;;;;;;;;;;3.89;86.28;101403.69;4961798;28;1287;-77
2023/03/16 08:16:01;;;;;;;;;;;;;;;3.91;86.31;101401.91;4997580;28;1365;-77
2023/03/16 08:18:27;;;;;;;;;;;;;;;3.95;85.87;101392.31;4967265;28;1397;-77
2023/03/16 08:20:52;;;;;;;;;;;;;;;4.00;85.74;101390.38;4962098;28;1890;-77
2023/03/16 08:23:18;;;;;;;;;;;;;;;4.03;85.29;101380.00;4957516;28;1087;-77
2023/03/16 08:25:43;;;;;;;;;;;;;;;4.06;85.82;101379.84;4966055;28;1181;-77
2023/03/16 08:28:09;;;;;;;;;;;;;;;4.10;86.51;101371.09;4964740;28;1581;-77
2023/03/16 08:30:34;;;;;;;;;;;;;;;4.14;85.76;101364.94;4963954;28;1228;-77
2023/03/16 08:33:01;;;;;;;;;;;;;;;4.18;86.49;101384.41;4965778;28;1384;-77
2023/03/16 08:35:27;;;;;;;;;;;;;;;4.24;86.60;101378.16;4964048;28;2033;-77
2023/03/16 08:37:53;;;;;;;;;;;;;;;4.30;87.10;101393.31;4966604;28;1409;-76
2023/03/16 08:40:21;;;;;;;;;;;;;;;4.34;86.24;101393.97;4963446;28;1915;-77
2023/03/16 08:42:48;;;;;;;;;;;;;;;4.38;86.33;101391.19;4966683;28;1357;-77
2023/03/16 08:45:14;;;;;;;;;;;;;;;4.42;86.05;101391.91;4962310;28;1645;-77
2023/03/16 08:47:39;;;;;;;;;;;;;;;4.45;85.73;101396.88;4963549;28;1525;-77
2023/03/16 08:50:05;;;;;;;;;;;;;;;4.50;86.11;101389.78;4961215;28;1303;-77
2023/03/16 08:52:32;;;;;;;;;;;;;;;4.54;85.69;101396.47;4966515;28;1295;-77
2023/03/16 08:54:57;;;;;;;;;;;;;;;4.59;85.64;101383.38;4967175;28;1491;-77
2023/03/16 08:57:23;;;;;;;;;;;;;;;4.64;85.64;101392.53;4968394;28;1178;-77
2023/03/16 08:59:48;;;;;;;;;;;;;;;4.69;84.65;101377.72;4964787;28;2048;-78
2023/03/16 09:02:13;;;;;;;;;;;;;;;4.74;84.19;101380.91;4965960;28;5278;-77
2023/03/16 09:04:39;;;;;;;;;;;;;;;4.79;84.46;101376.38;4964790;28;1406;-77
2023/03/16 09:07:04;;;;;;;;;;;;;;;4.86;84.61;101378.66;4965787;28;1156;-78
2023/03/16 09:09:30;;;;;;;;;;;;;;;4.92;84.56;101378.34;4955492;28;1159;-77
2023/03/16 09:11:55;;;;;;;;;;;;;;;4.95;84.13;101365.38;4961483;28;1151;-78
2023/03/16 09:14:21;;;;;;;;;;;;;;;4.98;84.02;101372.91;4961378;28;1204;-78
2023/03/16 09:16:47;;;;;;;;;;;;;;;5.01;83.99;101375.34;4964787;28;1509;-77
2023/03/16 09:19:12;;;;;;;;;;;;;;;5.03;83.72;101376.09;4963300;28;1898;-78
2023/03/16 09:21:38;;;;;;;;;;;;;;;5.04;83.44;101372.59;4965803;28;1207;-78
2023/03/16 09:24:03;;;;;;;;;;;;;;;5.07;83.22;101368.16;4963167;28;1203;-77
2023/03/16 09:26:29;;;;;;;;;;;;;;;5.10;82.54;101359.44;4966461;28;1197;-77
2023/03/16 09:28:54;;;;;;;;;;;;;;;5.15;82.30;101357.47;4967134;28;1328;-77
2023/03/16 09:31:20;;;;;;;;;;;;;;;5.18;81.89;101362.47;4967256;28;2024;-78
2023/03/16 09:33:45;;;;;;;;;;;;;;;5.21;82.40;101362.28;4969398;28;1357;-77
2023/03/16 09:36:12;;;;;;;;;;;;;;;5.25;82.16;101363.81;4968815;28;1449;-77
2023/03/16 09:38:38;;;;;;;;;;;;;;;5.30;82.06;101361.84;4967194;28;1401;-77
2023/03/16 09:41:07;;;;;;;;;;;;;;;5.38;81.61;101368.34;4969182;28;1907;-77
2023/03/16 09:44:02;;;;;;;;;;;;;;;5.44;81.52;101362.88;4968519;28;1133;-77
2023/03/16 09:46:31;;;;;;;;;;;;;;;5.52;80.83;101365.91;4957007;28;1322;-77
2023/03/16 09:48:57;;;;;;;;;;;;;;;5.54;81.23;101367.47;4970344;28;1482;-77
2023/03/16 09:51:32;;;;;;;;;;;;;;;5.63;80.35;101361.03;4969799;28;1333;-77
2023/03/16 09:54:00;;;;;;;;;;;;;;;5.68;80.47;101360.75;4971337;28;1155;-78
2023/03/16 09:56:32;;;;;;;;;;;;;;;5.75;80.81;101362.94;4969808;28;1325;-77
2023/03/16 09:58:57;;;;;;;;;;;;;;;5.85;79.97;101363.31;4969105;28;1036;-77
2023/03/16 10:01:35;;;;;;;;;;;;;;;5.95;80.45;101366.22;4962013;28;4876;-77
2023/03/16 10:04:08;;;;;;;;;;;;;;;6.04;79.58;101352.88;4971719;28;1714;-77
2023/03/16 10:06:40;;;;;;;;;;;;;;;6.13;79.07;101347.19;4971839;28;1219;-77
2023/03/16 10:09:27;;;;;;;;;;;;;;;6.22;79.08;101351.88;4967926;28;1091;-77
2023/03/16 10:11:54;;;;;;;;;;;;;;;6.35;79.11;101334.81;4972629;28;1334;-77
2023/03/16 10:14:27;;;;;;;;;;;;;;;6.49;78.05;101338.38;4959661;28;1008;-77
2023/03/16 10:16:59;;;;;;;;;;;;;;;6.63;77.89;101326.34;4967765;28;1456;-77
2023/03/16 10:19:45;;;;;;;;;;;;;;;6.82;76.89;101331.28;4963768;28;1902;-78
2023/03/16 10:22:26;;;;;;;;;;;;;;;6.96;76.62;101321.94;4965749;28;1145;-78
2023/03/16 10:25:07;;;;;;;;;;;;;;;7.11;76.60;101321.00;4962475;28;1015;-77
2023/03/16 10:27:35;;;;;;;;;;;;;;;7.24;76.13;101316.81;4965462;28;2254;-77
2023/03/16 10:30:01;;;;;;;;;;;;;;;7.35;74.77;101324.72;4975229;28;1242;-77
2023/03/16 10:32:30;;;;;;;;;;;;;;;7.51;74.45;101326.38;4967518;28;1342;-77
2023/03/16 10:34:58;;;;;;;;;;;;;;;7.56;73.96;101312.25;4967526;28;1385;-77
2023/03/16 10:37:25;;;;;;;;;;;;;;;7.75;72.29;101311.97;4967762;28;1191;-77
2023/03/16 10:39:50;;;;;;;;;;;;;;;7.85;71.12;101312.22;4965251;28;1957;-77
2023/03/16 10:42:17;;;;;;;;;;;;;;;7.98;71.08;101307.97;4963741;28;1425;-78
2023/03/16 10:44:42;;;;;;;;;;;;;;;8.09;71.50;101294.38;4969157;28;1170;-78
2023/03/16 10:47:16;;;;;;;;;;;;;;;8.14;71.27;101307.78;4967635;28;1464;-77
2023/03/16 10:49:47;;;;;;;;;;;;;;;8.17;69.62;101305.03;4966023;28;1327;-77
2023/03/16 10:52:16;;;;;;;;;;;;;;;8.24;69.96;101298.53;4965400;28;1361;-77
2023/03/16 10:54:48;;;;;;;;;;;;;;;8.32;69.25;101300.66;4966017;28;1270;-77
2023/03/16 10:57:34;;;;;;;;;;;;;;;8.43;69.80;101299.06;4968627;28;1362;-77
2023/03/16 11:00:06;;;;;;;;;;;;;;;8.53;68.55;101299.25;4997566;28;5130;-77
2023/03/16 11:02:33;;;;;;;;;;;;;;;8.60;68.04;101299.69;4967056;28;1345;-78
2023/03/16 11:04:58;;;;;;;;;;;;;;;8.69;69.15;101284.41;4980099;28;1429;-77
2023/03/16 11:07:24;;;;;;;;;;;;;;;8.76;68.30;101279.66;4968067;28;1400;-77
2023/03/16 11:09:54;;;;;;;;;;;;;;;8.84;67.61;101286.91;4965656;28;1425;-78
2023/03/16 11:12:29;;;;;;;;;;;;;;;8.86;68.13;101280.69;4965158;28;1364;-77
2023/03/16 11:15:01;;;;;;;;;;;;;;;8.87;68.16;101273.75;4966635;28;1178;-77
2023/03/16 11:17:38;;;;;;;;;;;;;;;8.87;68.36;101272.00;4965143;28;1432;-77
2023/03/16 11:20:13;;;;;;;;;;;;;;;8.86;68.16;101270.34;4969382;28;1896;-77
2023/03/16 11:22:39;;;;;;;;;;;;;;;8.87;68.35;101277.16;4964589;28;1144;-77
2023/03/16 11:25:17;;;;;;;;;;;;;;;8.88;67.12;101278.00;4966268;28;2376;-78
2023/03/16 11:27:55;;;;;;;;;;;;;;;8.90;67.47;101269.22;4982892;28;1308;-78
2023/03/16 11:30:23;;;;;;;;;;;;;;;8.94;67.00;101262.88;4964081;28;1200;-78
2023/03/16 11:32:49;;;;;;;;;;;;;;;8.97;66.48;101261.88;4961522;28;1591;-77
2023/03/16 11:35:20;;;;;;;;;;;;;;;8.99;67.19;101255.66;4967423;28;1230;-78
2023/03/16 11:38:09;;;;;;;;;;;;;;;9.02;66.32;101247.69;4963390;28;1151;-78
2023/03/16 11:40:54;;;;;;;;;;;;;;;9.05;65.78;101239.69;4962960;28;1969;-78
2023/03/16 11:43:39;;;;;;;;;;;;;;;9.09;65.67;101239.50;4995701;28;1459;-78
2023/03/16 11:46:10;;;;;;;;;;;;;;;9.13;65.58;101240.97;4992161;28;1405;-78
2023/03/16 11:48:35;;;;;;;;;;;;;;;9.18;65.12;101231.13;4966085;28;1190;-78
2023/03/16 11:51:03;;;;;;;;;;;;;;;9.20;64.00;101226.66;4966006;28;1160;-78
2023/03/16 11:53:48;;;;;;;;;;;;;;;9.22;63.56;101219.59;4966330;28;2368;-77
2023/03/16 11:56:17;;;;;;;;;;;;;;;9.27;64.55;101223.53;4961962;28;1361;-78
2023/03/16 11:59:00;;;;;;;;;;;;;;;9.33;64.87;101227.44;4997555;28;1216;-78
2023/03/16 12:01:29;;;;;;;;;;;;;;;9.43;64.50;101228.47;4961374;28;4857;-78
2023/03/16 12:04:17;;;;;;;;;;;;;;;9.49;64.09;101222.03;4998994;28;1295;-77
2023/03/16 12:06:56;;;;;;;;;;;;;;;9.58;64.48;101216.22;4962667;28;1038;-78
2023/03/16 12:09:41;;;;;;;;;;;;;;;9.68;63.12;101219.78;4965787;28;999;-78
2023/03/16 12:12:06;;;;;;;;;;;;;;;9.76;62.22;101211.47;4983451;28;1262;-77
2023/03/16 12:14:55;;;;;;;;;;;;;;;9.83;62.02;101210.09;4958674;28;1078;-78
2023/03/16 12:17:30;;;;;;;;;;;;;;;9.91;61.05;101205.16;4962405;28;1532;-78
2023/03/16 12:19:57;;;;;;;;;;;;;;;10.01;62.13;101202.75;4963842;28;2072;-77
2023/03/16 12:22:42;;;;;;;;;;;;;;;10.08;60.01;101194.38;4968948;28;1280;-77
2023/03/16 12:25:20;;;;;;;;;;;;;;;10.18;61.14;101188.53;4962730;28;1123;-77
2023/03/16 12:27:46;;;;;;;;;;;;;;;10.34;59.64;101183.91;4996155;28;1297;-77
2023/03/16 12:30:24;;;;;;;;;;;;;;;10.45;61.01;101186.53;4961151;28;1187;-77
2023/03/16 12:32:52;;;;;;;;;;;;;;;10.54;59.81;101184.97;4965475;28;1473;-78
2023/03/16 12:35:20;;;;;;;;;;;;;;;10.64;60.04;101176.38;4962219;28;1178;-77
2023/03/16 12:37:56;;;;;;;;;;;;;;;10.76;59.31;101160.84;4963867;28;1230;-78
2023/03/16 12:40:30;;;;;;;;;;;;;;;10.82;60.00;101162.94;4964676;28;1965;-77
2023/03/16 12:42:58;;;;;;;;;;;;;;;10.90;58.95;101158.84;4961663;28;1206;-78
2023/03/16 12:45:37;;;;;;;;;;;;;;;10.95;58.82;101148.06;4958369;28;1142;-78
2023/03/16 12:48:14;;;;;;;;;;;;;;;11.04;59.54;101151.72;4964025;28;1434;-78
2023/03/16 12:50:47;;;;;;;;;;;;;;;11.11;58.74;101153.72;4967871;28;1139;-78
2023/03/16 12:53:25;;;;;;;;;;;;;;;11.15;59.65;101139.56;4963889;28;1623;-78
2023/03/16 12:55:50;;;;;;;;;;;;;;;11.20;57.48;101135.78;4962998;28;1433;-78
2023/03/16 12:58:16;;;;;;;;;;;;;;;11.17;58.49;101129.03;4961205;28;1237;-78
2023/03/16 13:00:41;;;;;;;;;;;;;;;11.19;59.26;101128.94;4956642;28;5148;-78